地図

経路データ

SID SEASON NUMBER BASIN SUBBASIN NAME ISO_TIME NATURE LAT LON WMO_WIND WMO_PRES WMO_AGENCY TRACK_TYPE DIST2LAND LANDFALL IFLAG USA_AGENCY USA_ATCF_ID USA_LAT USA_LON USA_RECORD USA_STATUS USA_WIND USA_PRES USA_SSHS USA_R34_NE USA_R34_SE USA_R34_SW USA_R34_NW USA_R50_NE USA_R50_SE USA_R50_SW USA_R50_NW USA_R64_NE USA_R64_SE USA_R64_SW USA_R64_NW USA_POCI USA_ROCI USA_RMW USA_EYE TOKYO_LAT TOKYO_LON TOKYO_GRADE TOKYO_WIND TOKYO_PRES TOKYO_R50_DIR TOKYO_R50_LONG TOKYO_R50_SHORT TOKYO_R30_DIR TOKYO_R30_LONG TOKYO_R30_SHORT TOKYO_LAND CMA_LAT CMA_LON CMA_CAT CMA_WIND CMA_PRES HKO_LAT HKO_LON HKO_CAT HKO_WIND HKO_PRES NEWDELHI_LAT NEWDELHI_LON NEWDELHI_GRADE NEWDELHI_WIND NEWDELHI_PRES NEWDELHI_CI NEWDELHI_DP NEWDELHI_POCI REUNION_LAT REUNION_LON REUNION_TYPE REUNION_WIND REUNION_PRES REUNION_TNUM REUNION_CI REUNION_RMW REUNION_R34_NE REUNION_R34_SE REUNION_R34_SW REUNION_R34_NW REUNION_R50_NE REUNION_R50_SE REUNION_R50_SW REUNION_R50_NW REUNION_R64_NE REUNION_R64_SE REUNION_R64_SW REUNION_R64_NW BOM_LAT BOM_LON BOM_TYPE BOM_WIND BOM_PRES BOM_TNUM BOM_CI BOM_RMW BOM_R34_NE BOM_R34_SE BOM_R34_SW BOM_R34_NW BOM_R50_NE BOM_R50_SE BOM_R50_SW BOM_R50_NW BOM_R64_NE BOM_R64_SE BOM_R64_SW BOM_R64_NW BOM_ROCI BOM_POCI BOM_EYE BOM_POS_METHOD BOM_PRES_METHOD NADI_LAT NADI_LON NADI_CAT NADI_WIND NADI_PRES WELLINGTON_LAT WELLINGTON_LON WELLINGTON_WIND WELLINGTON_PRES DS824_LAT DS824_LON DS824_STAGE DS824_WIND DS824_PRES TD9636_LAT TD9636_LON TD9636_STAGE TD9636_WIND TD9636_PRES TD9635_LAT TD9635_LON TD9635_WIND TD9635_PRES TD9635_ROCI NEUMANN_LAT NEUMANN_LON NEUMANN_CLASS NEUMANN_WIND NEUMANN_PRES MLC_LAT MLC_LON MLC_CLASS MLC_WIND MLC_PRES USA_GUST BOM_GUST BOM_GUST_PER REUNION_GUST REUNION_GUST_PER USA_SEAHGT USA_SEARAD_NE USA_SEARAD_SE USA_SEARAD_SW USA_SEARAD_NW STORM_SPEED STORM_DIR
1950101N16170 1950 22 WP MM NOT_NAMED 1950-04-10 18:00:00 TS 16.0000 170.000 main 2915 2898 __O___________ -1 16.0000 170.000 0 1010 13 287
1950101N16170 1950 22 WP MM NOT_NAMED 1950-04-10 21:00:00 TS 16.1828 169.360 main 2899 2867 __P___________ -1 16.1828 169.360 0 1010 13 288
1950101N16170 1950 22 WP MM NOT_NAMED 1950-04-11 00:00:00 TS 16.4000 168.700 main 2869 2846 __O___________ -1 16.4000 168.700 0 1010 14 291
1950101N16170 1950 22 WP MM NOT_NAMED 1950-04-11 03:00:00 TS 16.6773 168.007 main 2848 2825 __P___________ -1 16.6773 168.007 0 1010 15 294
1950101N16170 1950 22 WP MM NOT_NAMED 1950-04-11 06:00:00 TS 17.0000 167.300 main 2827 2809 __O___________ -1 17.0000 167.300 0 1010 15 296
1950101N16170 1950 22 WP MM NOT_NAMED 1950-04-11 09:00:00 TS 17.3350 166.577 main 2809 2800 __P___________ -1 17.3350 166.577 0 1010 15 298
1950101N16170 1950 22 WP MM NOT_NAMED 1950-04-11 12:00:00 TS 17.7000 165.900 main 2803 2797 __O___________ -1 17.7000 165.900 0 1010 14 301
1950101N16170 1950 22 WP MM NOT_NAMED 1950-04-11 15:00:00 TS 18.0546 165.334 main 2805 2800 __P___________ -1 18.0546 165.334 0 1010 13 307
1950101N16170 1950 22 WP MM NOT_NAMED 1950-04-11 18:00:00 TS 18.5000 164.800 main 2814 2814 __O___________ -1 18.5000 164.800 0 1010 15 315
1950101N16170 1950 22 WP MM NOT_NAMED 1950-04-11 21:00:00 TS 19.1197 164.222 main 2838 2838 __P___________ -1 19.1197 164.222 0 1010 17 319
1950101N16170 1950 22 WP MM NOT_NAMED 1950-04-12 00:00:00 TS 19.8000 163.600 main 2838 2746 __O___________ -1 19.8000 163.600 0 1010 18 317
1950101N16170 1950 22 WP MM NOT_NAMED 1950-04-12 03:00:00 TS 20.4448 162.923 main 2739 2640 __P___________ -1 20.4448 162.923 0 1008 18 312
1950101N16170 1950 22 WP MM NOT_NAMED 1950-04-12 06:00:00 TS 21.0000 162.200 main 2640 2556 __O___________ -1 21.0000 162.200 0 1006 17 305
1950101N16170 1950 22 WP MM NOT_NAMED 1950-04-12 09:00:00 TS 21.3871 161.464 main 2556 2473 __P___________ -1 21.3871 161.464 0 1005 16 297
1950101N16170 1950 22 WP MM NOT_NAMED 1950-04-12 12:00:00 TS 21.7000 160.700 main 2473 2398 __O___________ -1 21.7000 160.700 1 29 1004 16 294
1950101N16170 1950 22 WP MM NOT_NAMED 1950-04-12 15:00:00 TS 22.0346 159.914 main 2390 2300 __P___________ -1 22.0346 159.914 1 33 1002 16 295
1950101N16170 1950 22 WP MM NOT_NAMED 1950-04-12 18:00:00 TS 22.4000 159.100 main 2300 2203 __O___________ -1 22.4000 159.100 2 38 1000 18 296
1950101N16170 1950 22 WP MM NOT_NAMED 1950-04-12 21:00:00 TS 22.8130 158.198 main 2203 2105 __P___________ -1 22.8130 158.198 2 38 999 18 300
1950101N16170 1950 22 WP MM NOT_NAMED 1950-04-13 00:00:00 TS 23.3000 157.400 main 2105 2030 __O___________ -1 23.3000 157.400 2 38 998 16 311
1950101N16170 1950 22 WP MM NOT_NAMED 1950-04-13 03:00:00 TS 23.8694 156.852 main 2022 1946 __P___________ -1 23.8694 156.852 2 43 994 15 326
1950101N16170 1950 22 WP MM NOT_NAMED 1950-04-13 06:00:00 TS 24.5000 156.500 main 1946 1878 __O___________ -1 24.5000 156.500 3 48 990 14 336
1950101N16170 1950 22 WP MM NOT_NAMED 1950-04-13 09:00:00 TS 25.1573 156.232 main 1871 1819 __P___________ -1 25.1573 156.232 3 48 990 14 344
1950101N16170 1950 22 WP MM NOT_NAMED 1950-04-13 12:00:00 TS 25.8000 156.100 main 1819 1775 __O___________ -1 25.8000 156.100 3 48 990 12 351
1950101N16170 1950 22 WP MM NOT_NAMED 1950-04-13 15:00:00 TS 26.3649 156.033 main 1768 1740 __P___________ -1 26.3649 156.033 3 53 987 11 0
1950101N16170 1950 22 WP MM NOT_NAMED 1950-04-13 18:00:00 TS 26.9000 156.100 main 1740 1721 __O___________ -1 26.9000 156.100 3 58 984 11 13
1950101N16170 1950 22 WP MM NOT_NAMED 1950-04-13 21:00:00 TS 27.4575 156.305 main 1716 1706 __P___________ -1 27.4575 156.305 3 58 984 12 22
1950101N16170 1950 22 WP MM NOT_NAMED 1950-04-14 00:00:00 TS 28.0000 156.600 main 1708 1700 __O___________ -1 28.0000 156.600 3 58 984 12 27
1950101N16170 1950 22 WP MM NOT_NAMED 1950-04-14 03:00:00 TS 28.5076 156.915 main 1702 1695 __P___________ -1 28.5076 156.915 3 58 984 11 28
1950101N16170 1950 22 WP MM NOT_NAMED 1950-04-14 06:00:00 TS 29.0000 157.200 main 1698 1687 __O___________ -1 29.0000 157.200 3 58 984 11 24
1950101N16170 1950 22 WP MM NOT_NAMED 1950-04-14 09:00:00 TS 29.4924 157.410 main 1687 1670 __P___________ -1 29.4924 157.410 3 58 984 10 15
1950101N16170 1950 22 WP MM NOT_NAMED 1950-04-14 12:00:00 TS 30.0000 157.500 main 1670 1646 __O___________ -1 30.0000 157.500 3 58 984 11 4
1950101N16170 1950 22 WP MM NOT_NAMED 1950-04-14 15:00:00 TS 30.5497 157.490 main 1646 1601 __P___________ -1 30.5497 157.490 3 53 986 11 351
1950101N16170 1950 22 WP MM NOT_NAMED 1950-04-14 18:00:00 TS 31.1000 157.300 main 1601 1557 __O___________ -1 31.1000 157.300 3 48 988 11 335
1950101N16170 1950 22 WP MM NOT_NAMED 1950-04-14 21:00:00 TS 31.5398 156.938 main 1549 1481 __P___________ -1 31.5398 156.938 3 48 990 13 322
1950101N16170 1950 22 WP MM NOT_NAMED 1950-04-15 00:00:00 TS 32.1000 156.400 main 1481 1399 __O___________ -1 32.1000 156.400 3 48 992 17 324
1950101N16170 1950 22 WP MM NOT_NAMED 1950-04-15 03:00:00 TS 32.9585 155.737 main 1387 1299 __P___________ -1 32.9585 155.737 3 48 992 22 328
1950101N16170 1950 22 WP MM NOT_NAMED 1950-04-15 06:00:00 TS 34.0000 155.000 main 1296 __O___________ -1 34.0000 155.000 3 48 992 24 330

デジタル台風データ・検索

IBTrACS Databaseについて

本データベースは、米国NOAAが公開する1842年以降の世界の熱帯低気圧のベストトラックデータアーカイブInternational Best Track Archive for Climate Stewardship (IBTrACS)を、ウェブで閲覧しやすい形式に変換したものです。

最終更新日:2021-10-08